Time;durP1;ratioP1;P1;durP2;ratioP2;P2;SDS_P1;SDS_P2;PMS_P1;PMS_P2;Temp;Humidity;BMP_temperature;BMP_pressure;BME280_temperature;BME280_humidity;BME280_pressure;Samples;Min_cycle;Max_cycle;Signal;HPM_P1;HPM_P2
2022/10/24 00:02:20;;;;;;;5.60;2.78;;;;;;;;;;4992851;28;99616;-77
2022/10/24 00:04:47;;;;;;;12.65;2.72;;;;;;;;;;4993243;28;98435;-77
2022/10/24 00:07:13;;;;;;;5.75;2.60;;;;;;;;;;4992845;28;99355;-77
2022/10/24 00:09:39;;;;;;;9.00;2.65;;;;;;;;;;4993238;28;99485;-77
2022/10/24 00:12:06;;;;;;;6.43;2.53;;;;;;;;;;4992829;28;97819;-76
2022/10/24 00:14:34;;;;;;;9.00;2.88;;;;;;;;;;4992528;28;99446;-76
2022/10/24 00:17:00;;;;;;;8.38;3.10;;;;;;;;;;4995339;28;100598;-77
2022/10/24 00:19:27;;;;;;;4.50;2.90;;;;;;;;;;4992531;28;99918;-77
2022/10/24 00:21:53;;;;;;;9.30;3.03;;;;;;;;;;4991474;28;99594;-77
2022/10/24 00:24:20;;;;;;;7.65;2.58;;;;;;;;;;4992280;28;98545;-76
2022/10/24 00:26:46;;;;;;;8.05;3.25;;;;;;;;;;4992589;28;99968;-76
2022/10/24 00:29:12;;;;;;;9.55;3.30;;;;;;;;;;4992015;28;100752;-77
2022/10/24 00:31:39;;;;;;;7.97;3.08;;;;;;;;;;5004586;28;98546;-77
2022/10/24 00:34:05;;;;;;;22.98;4.25;;;;;;;;;;5011904;28;98776;-77
2022/10/24 00:36:31;;;;;;;10.40;2.97;;;;;;;;;;5012421;28;99409;-77
2022/10/24 00:38:58;;;;;;;7.80;3.17;;;;;;;;;;5015980;28;98515;-77
2022/10/24 00:41:29;;;;;;;12.32;3.30;;;;;;;;;;5012276;28;100193;-76
2022/10/24 00:44:15;;;;;;;7.90;2.85;;;;;;;;;;5012093;28;99485;-76
2022/10/24 00:46:43;;;;;;;6.28;2.45;;;;;;;;;;5012576;28;100573;-77
2022/10/24 00:49:13;;;;;;;10.65;3.58;;;;;;;;;;5010818;28;99518;-77
2022/10/24 00:51:40;;;;;;;6.18;2.85;;;;;;;;;;5011979;28;98550;-76
2022/10/24 00:54:08;;;;;;;6.30;2.85;;;;;;;;;;4992592;28;98911;-77
2022/10/24 00:56:38;;;;;;;10.25;3.47;;;;;;;;;;4992055;28;100185;-77
2022/10/24 00:59:05;;;;;;;9.25;3.00;;;;;;;;;;4995642;28;99513;-77
2022/10/24 01:01:33;;;;;;;6.93;3.15;;;;;;;;;;4992258;28;99514;-77
2022/10/24 01:03:59;;;;;;;7.07;2.85;;;;;;;;;;4991307;28;98656;-77
2022/10/24 01:06:46;;;;;;;7.43;2.70;;;;;;;;;;5011504;28;99941;-78
2022/10/24 01:09:12;;;;;;;7.28;2.70;;;;;;;;;;5011302;28;100946;-77
2022/10/24 01:11:38;;;;;;;9.25;2.75;;;;;;;;;;5011689;28;98549;-77
2022/10/24 01:14:17;;;;;;;6.35;2.53;;;;;;;;;;5012208;28;99094;-77
2022/10/24 01:16:49;;;;;;;12.18;3.67;;;;;;;;;;5011444;28;100219;-78
2022/10/24 01:19:35;;;;;;;10.50;2.80;;;;;;;;;;5013144;28;98544;-77
2022/10/24 01:22:04;;;;;;;8.63;3.15;;;;;;;;;;4989992;28;99947;-76
2022/10/24 01:24:36;;;;;;;7.82;2.88;;;;;;;;;;4991765;28;99172;-76
2022/10/24 01:27:23;;;;;;;6.75;2.65;;;;;;;;;;4991728;28;98856;-77
2022/10/24 01:30:01;;;;;;;15.43;2.30;;;;;;;;;;4992476;28;99712;-77
2022/10/24 01:32:31;;;;;;;5.13;2.83;;;;;;;;;;4991524;28;98550;-77
2022/10/24 01:35:22;;;;;;;7.93;2.40;;;;;;;;;;4991858;28;99150;-77
2022/10/24 01:37:58;;;;;;;9.00;2.50;;;;;;;;;;4990853;28;100361;-77
2022/10/24 01:40:30;;;;;;;4.10;2.30;;;;;;;;;;4992877;28;98685;-77
2022/10/24 01:43:01;;;;;;;11.38;2.63;;;;;;;;;;4994587;28;99782;-77
2022/10/24 01:45:30;;;;;;;9.60;2.75;;;;;;;;;;4998138;28;100170;-77
2022/10/24 01:47:58;;;;;;;5.25;2.15;;;;;;;;;;4995526;28;99947;-77
2022/10/24 01:50:25;;;;;;;9.73;3.28;;;;;;;;;;4995321;28;100188;-77
2022/10/24 01:52:53;;;;;;;8.48;2.38;;;;;;;;;;4994985;28;97843;-77
2022/10/24 01:55:19;;;;;;;13.95;2.70;;;;;;;;;;4998131;28;99422;-77
2022/10/24 01:57:45;;;;;;;6.78;2.30;;;;;;;;;;5014482;28;99528;-77
2022/10/24 02:00:17;;;;;;;13.88;2.60;;;;;;;;;;5012449;28;99191;-77
2022/10/24 02:02:57;;;;;;;9.40;2.67;;;;;;;;;;4995950;28;100770;-77
2022/10/24 02:05:40;;;;;;;3.92;2.25;;;;;;;;;;4995220;28;100337;-77
2022/10/24 02:08:09;;;;;;;7.72;2.33;;;;;;;;;;4997224;28;98939;-77
2022/10/24 02:10:38;;;;;;;5.53;2.53;;;;;;;;;;4994868;28;99576;-77
2022/10/24 02:13:08;;;;;;;4.63;2.72;;;;;;;;;;4995162;28;98736;-77
2022/10/24 02:15:41;;;;;;;9.07;2.30;;;;;;;;;;4994879;28;99995;-77
2022/10/24 02:18:07;;;;;;;;;;;;;;;;;;4995490;28;98131;-77
2022/10/24 02:20:36;;;;;;;6.20;2.30;;;;;;;;;;4994379;28;116912;-77
2022/10/24 02:23:05;;;;;;;4.95;2.08;;;;;;;;;;4994124;28;99970;-76
2022/10/24 02:25:34;;;;;;;6.00;2.75;;;;;;;;;;4994009;28;100906;-77
2022/10/24 02:28:05;;;;;;;7.00;2.38;;;;;;;;;;4993738;28;98699;-77
2022/10/24 02:30:34;;;;;;;6.05;2.22;;;;;;;;;;4998461;28;99974;-76
2022/10/24 02:33:00;;;;;;;6.18;2.15;;;;;;;;;;4993861;28;98484;-77
2022/10/24 02:35:31;;;;;;;6.38;2.38;;;;;;;;;;4994228;28;99821;-77
2022/10/24 02:38:12;;;;;;;6.82;2.25;;;;;;;;;;4994536;28;100203;-77
2022/10/24 02:40:39;;;;;;;5.00;2.17;;;;;;;;;;4994552;28;98401;-76
2022/10/24 02:43:06;;;;;;;11.00;2.50;;;;;;;;;;4994159;28;99920;-78
2022/10/24 02:45:33;;;;;;;8.95;2.35;;;;;;;;;;4994059;28;100133;-77
2022/10/24 02:48:03;;;;;;;4.13;2.28;;;;;;;;;;4994090;28;98766;-77
2022/10/24 02:50:30;;;;;;;9.48;2.65;;;;;;;;;;4993984;28;99943;-77
2022/10/24 02:52:56;;;;;;;6.70;2.42;;;;;;;;;;4996215;28;100155;-77
2022/10/24 02:55:23;;;;;;;6.35;2.00;;;;;;;;;;4993263;28;98879;-77
2022/10/24 02:57:49;;;;;;;9.95;2.35;;;;;;;;;;4993050;28;100412;-77
2022/10/24 03:00:17;;;;;;;4.63;2.03;;;;;;;;;;4994265;28;98503;-77
2022/10/24 03:02:43;;;;;;;8.40;2.20;;;;;;;;;;4993714;28;100298;-77
2022/10/24 03:05:10;;;;;;;10.60;2.53;;;;;;;;;;5010992;28;100690;-77
2022/10/24 03:07:36;;;;;;;9.98;3.08;;;;;;;;;;5015072;28;97754;-77
2022/10/24 03:10:03;;;;;;;6.65;2.42;;;;;;;;;;5013320;28;99143;-77
2022/10/24 03:12:30;;;;;;;5.47;2.03;;;;;;;;;;5017193;28;100414;-76
2022/10/24 03:14:56;;;;;;;9.07;2.25;;;;;;;;;;5013318;28;100222;-77
2022/10/24 03:17:23;;;;;;;7.32;1.98;;;;;;;;;;5012904;28;100232;-77
2022/10/24 03:19:50;;;;;;;6.53;2.10;;;;;;;;;;5013745;28;98742;-77
2022/10/24 03:22:16;;;;;;;5.68;1.83;;;;;;;;;;4994894;28;100050;-76
2022/10/24 03:24:43;;;;;;;5.00;2.20;;;;;;;;;;4992656;28;100844;-77
2022/10/24 03:27:21;;;;;;;7.38;2.28;;;;;;;;;;4993478;28;98446;-77
2022/10/24 03:29:47;;;;;;;8.05;2.50;;;;;;;;;;4993593;28;100047;-77
2022/10/24 03:32:14;;;;;;;7.32;2.17;;;;;;;;;;4993517;28;99742;-77
2022/10/24 03:34:40;;;;;;;4.65;1.80;;;;;;;;;;4997294;28;98507;-77
2022/10/24 03:37:06;;;;;;;3.30;2.00;;;;;;;;;;4993401;28;100324;-77
2022/10/24 03:39:33;;;;;;;7.55;2.10;;;;;;;;;;4972112;28;99742;-77
2022/10/24 03:41:59;;;;;;;5.82;2.33;;;;;;;;;;4973360;28;100827;-77
2022/10/24 03:44:26;;;;;;;10.15;2.05;;;;;;;;;;4972986;28;99286;-77
2022/10/24 03:46:52;;;;;;;8.77;1.90;;;;;;;;;;4973258;28;98563;-77
2022/10/24 03:49:18;;;;;;;8.18;1.83;;;;;;;;;;4973648;28;100255;-77
2022/10/24 03:51:46;;;;;;;8.32;1.98;;;;;;;;;;4979967;28;99356;-76
2022/10/24 03:54:14;;;;;;;7.93;2.20;;;;;;;;;;4993905;28;98535;-75
2022/10/24 03:56:41;;;;;;;7.50;2.08;;;;;;;;;;5016942;28;99841;-76
2022/10/24 03:59:08;;;;;;;11.25;1.85;;;;;;;;;;5012223;28;98912;-77
2022/10/24 04:01:34;;;;;;;13.05;2.25;;;;;;;;;;4999787;28;99965;-77
2022/10/24 04:04:01;;;;;;;5.68;1.98;;;;;;;;;;4992293;28;100888;-77
2022/10/24 04:06:27;;;;;;;10.07;2.28;;;;;;;;;;4992769;28;98455;-76
2022/10/24 04:09:01;;;;;;;7.68;1.95;;;;;;;;;;4993232;28;100289;-77
2022/10/24 04:11:29;;;;;;;10.68;2.17;;;;;;;;;;4993670;28;100298;-77
2022/10/24 04:13:59;;;;;;;12.57;2.22;;;;;;;;;;4991579;28;99890;-77
2022/10/24 04:16:26;;;;;;;10.00;1.90;;;;;;;;;;4993551;28;98989;-77
2022/10/24 04:18:52;;;;;;;10.45;1.92;;;;;;;;;;4996416;28;99472;-77
2022/10/24 04:21:19;;;;;;;5.75;1.55;;;;;;;;;;4991795;28;98343;-77
2022/10/24 04:23:48;;;;;;;9.27;1.80;;;;;;;;;;4992700;28;100427;-77
2022/10/24 04:26:15;;;;;;;5.32;1.80;;;;;;;;;;4993472;28;98519;-76
2022/10/24 04:28:41;;;;;;;6.10;1.50;;;;;;;;;;4992236;28;99934;-76
2022/10/24 04:31:08;;;;;;;5.25;1.60;;;;;;;;;;4992369;28;100496;-76
2022/10/24 04:33:35;;;;;;;5.78;1.83;;;;;;;;;;4991711;28;98707;-76
2022/10/24 04:36:02;;;;;;;4.95;1.63;;;;;;;;;;4992648;28;100116;-76
2022/10/24 04:38:28;;;;;;;11.10;1.67;;;;;;;;;;4992259;28;100168;-76
2022/10/24 04:40:59;;;;;;;5.95;1.63;;;;;;;;;;4994495;28;98774;-78
2022/10/24 04:43:25;;;;;;;9.90;2.15;;;;;;;;;;4992300;28;99522;-76
2022/10/24 04:45:51;;;;;;;6.40;2.00;;;;;;;;;;4993766;28;97775;-76
2022/10/24 04:48:18;;;;;;;11.10;2.13;;;;;;;;;;4992560;28;98593;-77
2022/10/24 04:50:45;;;;;;;12.00;1.63;;;;;;;;;;4992274;28;100134;-77
2022/10/24 04:53:11;;;;;;;9.55;2.25;;;;;;;;;;4992320;28;99237;-77
2022/10/24 04:55:37;;;;;;;5.55;1.80;;;;;;;;;;4991963;28;101185;-76
2022/10/24 04:58:04;;;;;;;4.15;1.65;;;;;;;;;;4992183;28;100351;-76
2022/10/24 05:00:30;;;;;;;15.48;1.63;;;;;;;;;;4991933;28;98508;-76
2022/10/24 05:02:56;;;;;;;8.07;1.83;;;;;;;;;;4995031;28;99956;-77
2022/10/24 05:05:24;;;;;;;7.32;1.73;;;;;;;;;;4990690;28;98602;-77
2022/10/24 05:07:50;;;;;;;6.47;1.55;;;;;;;;;;4992105;28;99927;-77
2022/10/24 05:10:17;;;;;;;9.00;1.85;;;;;;;;;;4992337;28;98691;-76
2022/10/24 05:12:43;;;;;;;7.50;2.03;;;;;;;;;;4992230;28;98513;-76
2022/10/24 05:15:13;;;;;;;5.82;1.70;;;;;;;;;;4991667;28;99960;-76
2022/10/24 05:17:39;;;;;;;8.98;2.00;;;;;;;;;;4990314;28;100263;-76
2022/10/24 05:20:06;;;;;;;8.15;1.75;;;;;;;;;;4992304;28;98553;-77
2022/10/24 05:22:33;;;;;;;9.20;2.10;;;;;;;;;;4995074;28;99831;-77
2022/10/24 05:24:59;;;;;;;7.43;1.70;;;;;;;;;;4991614;28;99511;-77
2022/10/24 05:27:26;;;;;;;12.73;2.00;;;;;;;;;;4992325;28;99269;-77
2022/10/24 05:29:52;;;;;;;5.85;1.70;;;;;;;;;;4990968;28;100620;-77
2022/10/24 05:32:20;;;;;;;7.40;1.50;;;;;;;;;;4992195;28;98581;-77
2022/10/24 05:34:47;;;;;;;7.45;1.90;;;;;;;;;;4991819;28;99823;-77
2022/10/24 05:37:13;;;;;;;12.15;2.00;;;;;;;;;;4989519;28;100172;-76
2022/10/24 05:39:39;;;;;;;8.48;1.60;;;;;;;;;;4991067;28;98630;-77
2022/10/24 05:42:07;;;;;;;6.00;1.70;;;;;;;;;;4991204;28;100026;-77
2022/10/24 05:44:33;;;;;;;8.10;2.50;;;;;;;;;;4990756;28;99481;-77
2022/10/24 05:47:00;;;;;;;8.60;2.05;;;;;;;;;;4985590;28;99142;-76
2022/10/24 05:49:26;;;;;;;6.72;1.65;;;;;;;;;;4986887;28;99476;-75
2022/10/24 05:51:53;;;;;;;11.90;1.88;;;;;;;;;;4990948;28;98525;-75
2022/10/24 05:54:19;;;;;;;3.88;1.75;;;;;;;;;;4988508;28;100568;-76
2022/10/24 05:56:45;;;;;;;7.10;2.13;;;;;;;;;;4988145;28;100186;-75
2022/10/24 05:59:12;;;;;;;4.55;1.75;;;;;;;;;;4988267;28;98166;-74
2022/10/24 06:01:40;;;;;;;7.03;1.73;;;;;;;;;;4984007;28;100003;-74
2022/10/24 06:04:06;;;;;;;8.95;2.17;;;;;;;;;;4988423;28;99798;-73
2022/10/24 06:06:40;;;;;;;;;;;;;;;;;;4992090;28;99371;-74
2022/10/24 06:09:09;;;;;;;13.02;1.83;;;;;;;;;;4988363;28;102732;-74
2022/10/24 06:11:35;;;;;;;7.88;1.67;;;;;;;;;;4991441;28;98501;-74
2022/10/24 06:14:02;;;;;;;7.47;1.83;;;;;;;;;;4982039;28;100143;-77
2022/10/24 06:16:29;;;;;;;3.85;1.60;;;;;;;;;;4990547;28;99506;-74
2022/10/24 06:18:56;;;;;;;8.77;1.70;;;;;;;;;;4989768;28;98639;-75
2022/10/24 06:21:22;;;;;;;9.43;1.77;;;;;;;;;;4989951;28;99027;-75
2022/10/24 06:23:49;;;;;;;9.60;2.10;;;;;;;;;;4990990;28;99445;-74
2022/10/24 06:26:16;;;;;;;8.05;1.85;;;;;;;;;;4991051;28;98696;-75
2022/10/24 06:28:46;;;;;;;14.80;1.90;;;;;;;;;;4996642;28;99777;-74
2022/10/24 06:31:13;;;;;;;8.20;1.92;;;;;;;;;;4994152;28;99281;-74
2022/10/24 06:33:39;;;;;;;5.18;1.67;;;;;;;;;;4993449;28;99678;-75
2022/10/24 06:36:08;;;;;;;12.15;2.20;;;;;;;;;;4993924;28;100409;-75
2022/10/24 06:38:35;;;;;;;8.73;1.90;;;;;;;;;;4994987;28;98537;-74
2022/10/24 06:41:08;;;;;;;10.10;2.00;;;;;;;;;;4992201;28;99291;-74
2022/10/24 06:43:34;;;;;;;4.38;1.65;;;;;;;;;;4994282;28;99631;-75
2022/10/24 06:46:04;;;;;;;7.80;1.90;;;;;;;;;;4994464;28;98488;-74
2022/10/24 06:48:30;;;;;;;12.13;2.22;;;;;;;;;;4993969;28;100053;-75
2022/10/24 06:50:58;;;;;;;9.68;1.85;;;;;;;;;;4996233;28;100426;-75
2022/10/24 06:53:27;;;;;;;7.00;2.05;;;;;;;;;;4994389;28;100040;-74
2022/10/24 06:55:53;;;;;;;9.98;2.25;;;;;;;;;;4992656;28;101212;-76
2022/10/24 06:58:21;;;;;;;9.07;2.10;;;;;;;;;;4994364;28;98549;-74
2022/10/24 07:00:47;;;;;;;6.93;2.13;;;;;;;;;;4993652;28;99546;-75
2022/10/24 07:03:14;;;;;;;4.88;1.83;;;;;;;;;;4992437;28;100270;-75
2022/10/24 07:05:41;;;;;;;6.47;1.60;;;;;;;;;;4993971;28;98445;-76
2022/10/24 07:08:07;;;;;;;8.73;2.08;;;;;;;;;;4993486;28;100098;-74
2022/10/24 07:10:34;;;;;;;8.35;1.50;;;;;;;;;;4993141;28;100193;-74
2022/10/24 07:13:00;;;;;;;11.15;2.72;;;;;;;;;;4997371;28;97751;-74
2022/10/24 07:15:27;;;;;;;10.55;2.17;;;;;;;;;;4992650;28;100941;-75
2022/10/24 07:17:54;;;;;;;10.13;2.58;;;;;;;;;;4993896;28;98481;-75
2022/10/24 07:20:20;;;;;;;10.02;1.90;;;;;;;;;;4993433;28;99764;-76
2022/10/24 07:22:46;;;;;;;7.57;2.50;;;;;;;;;;4992357;28;100096;-75
2022/10/24 07:25:13;;;;;;;9.00;2.42;;;;;;;;;;4993994;28;98513;-75
2022/10/24 07:27:40;;;;;;;10.82;2.88;;;;;;;;;;4991865;28;99972;-76
2022/10/24 07:30:07;;;;;;;6.53;1.65;;;;;;;;;;4991376;28;100374;-77
2022/10/24 07:32:33;;;;;;;10.93;2.30;;;;;;;;;;4996319;28;98503;-74
2022/10/24 07:34:59;;;;;;;9.40;2.22;;;;;;;;;;4992432;28;100426;-75
2022/10/24 07:37:26;;;;;;;5.93;2.00;;;;;;;;;;4993767;28;98005;-75
2022/10/24 07:39:52;;;;;;;12.23;2.38;;;;;;;;;;4992240;28;98495;-74
2022/10/24 07:42:21;;;;;;;6.72;1.83;;;;;;;;;;4992662;28;100436;-75
2022/10/24 07:44:47;;;;;;;7.47;2.15;;;;;;;;;;4991774;28;99175;-74
2022/10/24 07:47:14;;;;;;;4.57;1.75;;;;;;;;;;4993696;28;100703;-75
2022/10/24 07:49:40;;;;;;;7.97;2.35;;;;;;;;;;4993014;28;100312;-74
2022/10/24 07:52:06;;;;;;;6.78;1.92;;;;;;;;;;4992321;28;98563;-75
2022/10/24 07:54:33;;;;;;;8.65;2.38;;;;;;;;;;4994614;28;101239;-74
2022/10/24 07:57:02;;;;;;;9.18;2.15;;;;;;;;;;4992381;28;99456;-76
2022/10/24 07:59:29;;;;;;;10.45;2.90;;;;;;;;;;4992778;28;100156;-75
2022/10/24 08:02:09;;;;;;;14.38;2.50;;;;;;;;;;4992838;28;99585;-75
2022/10/24 08:04:35;;;;;;;6.75;2.08;;;;;;;;;;4992195;28;98676;-75
2022/10/24 08:07:02;;;;;;;13.45;2.25;;;;;;;;;;4993260;28;98936;-75
2022/10/24 08:09:28;;;;;;;7.75;2.45;;;;;;;;;;4992153;28;100945;-75
2022/10/24 08:11:54;;;;;;;9.15;1.60;;;;;;;;;;4991601;28;98490;-76
2022/10/24 08:14:21;;;;;;;11.05;2.35;;;;;;;;;;4992646;28;100087;-76
2022/10/24 08:16:47;;;;;;;12.07;2.15;;;;;;;;;;4995870;28;100358;-76
2022/10/24 08:19:14;;;;;;;8.10;1.95;;;;;;;;;;4991969;28;98987;-76
2022/10/24 08:21:41;;;;;;;9.52;2.30;;;;;;;;;;4992483;28;99911;-74
2022/10/24 08:24:07;;;;;;;7.85;2.03;;;;;;;;;;4991918;28;98793;-77
2022/10/24 08:26:33;;;;;;;7.78;2.47;;;;;;;;;;4992734;28;99880;-77
2022/10/24 08:29:01;;;;;;;10.05;2.40;;;;;;;;;;4991313;28;100245;-76
2022/10/24 08:31:27;;;;;;;4.78;1.60;;;;;;;;;;4991893;28;98673;-76
2022/10/24 08:33:54;;;;;;;14.52;2.95;;;;;;;;;;4991031;28;99891;-76
2022/10/24 08:36:22;;;;;;;10.43;1.98;;;;;;;;;;4990155;28;99662;-76
2022/10/24 08:38:51;;;;;;;11.00;1.90;;;;;;;;;;4984144;28;98695;-76
2022/10/24 08:41:29;;;;;;;8.18;1.73;;;;;;;;;;4990631;28;100145;-75
2022/10/24 08:43:57;;;;;;;7.63;1.80;;;;;;;;;;4992115;28;98450;-75
2022/10/24 08:46:34;;;;;;;7.60;1.65;;;;;;;;;;5007561;28;99881;-76
2022/10/24 08:49:12;;;;;;;8.68;1.90;;;;;;;;;;4990557;28;100517;-76
2022/10/24 08:51:44;;;;;;;8.02;1.90;;;;;;;;;;4990545;28;97905;-76
2022/10/24 08:54:13;;;;;;;5.78;1.45;;;;;;;;;;4991115;28;99262;-76
2022/10/24 08:56:39;;;;;;;5.75;1.95;;;;;;;;;;4992092;28;100899;-76
2022/10/24 08:59:08;;;;;;;7.13;1.90;;;;;;;;;;4991770;28;99298;-75
2022/10/24 09:01:42;;;;;;;12.00;2.13;;;;;;;;;;4994966;28;100608;-76
2022/10/24 09:04:12;;;;;;;14.48;2.25;;;;;;;;;;4992882;28;98479;-75
2022/10/24 09:06:38;;;;;;;12.75;1.73;;;;;;;;;;4992073;28;100354;-75
2022/10/24 09:09:11;;;;;;;11.32;2.58;;;;;;;;;;4991849;28;100226;-76
2022/10/24 09:11:58;;;;;;;7.88;2.00;;;;;;;;;;4993319;28;98450;-76
2022/10/24 09:14:28;;;;;;;6.45;1.88;;;;;;;;;;4993065;28;99010;-76
2022/10/24 09:17:09;;;;;;;10.82;2.47;;;;;;;;;;4991645;28;100121;-76
2022/10/24 09:19:36;;;;;;;5.38;1.67;;;;;;;;;;4992427;28;98469;-76
2022/10/24 09:22:03;;;;;;;9.98;1.98;;;;;;;;;;4993540;28;100029;-76
2022/10/24 09:24:38;;;;;;;7.15;2.10;;;;;;;;;;4992116;28;100055;-76
2022/10/24 09:27:08;;;;;;;12.00;2.40;;;;;;;;;;4992286;28;101057;-75
2022/10/24 09:29:34;;;;;;;12.65;2.38;;;;;;;;;;4992725;28;100256;-76
2022/10/24 09:32:01;;;;;;;15.35;2.35;;;;;;;;;;4993593;28;98492;-75
2022/10/24 09:34:27;;;;;;;7.60;1.75;;;;;;;;;;4992091;28;99995;-76
2022/10/24 09:36:53;;;;;;;13.13;2.60;;;;;;;;;;4990695;28;99599;-76
2022/10/24 09:39:22;;;;;;;7.38;2.13;;;;;;;;;;4993056;28;98545;-75
2022/10/24 09:41:50;;;;;;;9.05;2.25;;;;;;;;;;4993616;28;99139;-75
2022/10/24 09:44:38;;;;;;;10.45;2.17;;;;;;;;;;4994750;28;100260;-75
2022/10/24 09:47:08;;;;;;;8.68;1.80;;;;;;;;;;4991871;28;99308;-75
2022/10/24 09:49:35;;;;;;;5.20;1.90;;;;;;;;;;4992550;28;100285;-80
2022/10/24 09:52:04;;;;;;;8.27;2.22;;;;;;;;;;4993200;28;98689;-77
2022/10/24 09:54:32;;;;;;;6.93;2.42;;;;;;;;;;4992789;28;99125;-76
2022/10/24 09:57:10;;;;;;;11.55;2.20;;;;;;;;;;4990429;28;100255;-76
2022/10/24 09:59:42;;;;;;;7.57;2.00;;;;;;;;;;4991613;28;98496;-76
2022/10/24 10:02:09;;;;;;;13.30;2.42;;;;;;;;;;4991501;28;99332;-76
2022/10/24 10:04:36;;;;;;;4.47;1.58;;;;;;;;;;4993882;28;99180;-76
2022/10/24 10:07:09;;;;;;;6.93;2.13;;;;;;;;;;4998321;28;97782;-76
2022/10/24 10:09:41;;;;;;;5.03;1.92;;;;;;;;;;4995300;28;99519;-76
2022/10/24 10:12:37;;;;;;;6.40;1.98;;;;;;;;;;4994270;28;98817;-76
2022/10/24 10:15:17;;;;;;;8.50;2.10;;;;;;;;;;4984704;28;99304;-76
2022/10/24 10:17:51;;;;;;;9.70;1.77;;;;;;;;;;4993651;28;100187;-76
2022/10/24 10:20:39;;;;;;;6.68;1.90;;;;;;;;;;4993535;28;98513;-76
2022/10/24 10:23:16;;;;;;;6.85;2.50;;;;;;;;;;4994589;28;99710;-76
2022/10/24 10:25:44;;;;;;;5.63;1.58;;;;;;;;;;4993871;28;99221;-76
2022/10/24 10:28:20;;;;;;;7.93;1.75;;;;;;;;;;4994789;28;98506;-76
2022/10/24 10:30:48;;;;;;;5.40;1.88;;;;;;;;;;4998279;28;100103;-76
2022/10/24 10:33:20;;;;;;;8.57;2.30;;;;;;;;;;4992980;28;97813;-77
2022/10/24 10:36:03;;;;;;;7.60;1.98;;;;;;;;;;4994551;28;99202;-77
2022/10/24 10:38:48;;;;;;;7.30;1.67;;;;;;;;;;4994142;28;100477;-76
2022/10/24 10:41:33;;;;;;;7.88;1.67;;;;;;;;;;4973022;28;99492;-76
2022/10/24 10:44:05;;;;;;;8.73;1.73;;;;;;;;;;4975026;28;99784;-76
2022/10/24 10:46:37;;;;;;;11.15;1.75;;;;;;;;;;4972691;28;100460;-76
2022/10/24 10:49:09;;;;;;;10.02;2.10;;;;;;;;;;4974139;28;98621;-76
2022/10/24 10:51:36;;;;;;;;;;;;;;;;;;4991856;28;98892;-76
2022/10/24 10:54:10;;;;;;;6.18;1.45;;;;;;;;;;4996453;28;129707;-76
2022/10/24 10:56:52;;;;;;;12.10;1.83;;;;;;;;;;4994416;28;99016;-79
2022/10/24 10:59:27;;;;;;;4.07;1.40;;;;;;;;;;4994613;28;99399;-76
2022/10/24 11:02:13;;;;;;;3.45;1.38;;;;;;;;;;4993382;28;98466;-76
2022/10/24 11:04:58;;;;;;;10.18;1.70;;;;;;;;;;4993343;28;98841;-75
2022/10/24 11:07:24;;;;;;;5.72;1.50;;;;;;;;;;4992104;28;100929;-76
2022/10/24 11:09:52;;;;;;;8.73;1.92;;;;;;;;;;4993625;28;98479;-76
2022/10/24 11:12:29;;;;;;;7.68;1.58;;;;;;;;;;4994433;28;98902;-76
2022/10/24 11:15:20;;;;;;;5.75;1.60;;;;;;;;;;4991842;28;99366;-76
2022/10/24 11:17:52;;;;;;;8.38;1.92;;;;;;;;;;4994065;28;98686;-76
2022/10/24 11:20:23;;;;;;;9.10;1.98;;;;;;;;;;4994432;28;98424;-76
2022/10/24 11:22:51;;;;;;;9.52;2.10;;;;;;;;;;4994233;28;98515;-77
2022/10/24 11:25:20;;;;;;;5.35;1.80;;;;;;;;;;4995259;28;99101;-77
2022/10/24 11:32:06;;;;;;;3.58;1.38;;;;;;;;;;4982350;28;98873;-75
2022/10/24 11:34:53;;;;;;;11.57;1.55;;;;;;;;;;4996669;28;99359;-74
2022/10/24 11:37:23;;;;;;;7.80;2.17;;;;;;;;;;4992533;28;98503;-74
2022/10/24 11:40:01;;;;;;;6.63;1.42;;;;;;;;;;4996762;28;98571;-76
2022/10/24 11:42:46;;;;;;;6.25;1.40;;;;;;;;;;4993086;28;100229;-74
2022/10/24 11:45:15;;;;;;;4.32;1.85;;;;;;;;;;4993340;28;98574;-75
2022/10/24 11:47:46;;;;;;;4.90;1.80;;;;;;;;;;4993825;28;99804;-74
2022/10/24 11:50:21;;;;;;;7.38;1.55;;;;;;;;;;4992039;28;99670;-75
2022/10/24 11:52:52;;;;;;;4.38;1.58;;;;;;;;;;4994044;28;97769;-75
2022/10/24 11:55:21;;;;;;;8.20;1.75;;;;;;;;;;4993436;28;98568;-76
2022/10/24 11:57:50;;;;;;;5.28;3.13;;;;;;;;;;4991985;28;100118;-77
2022/10/24 12:00:22;;;;;;;7.63;1.85;;;;;;;;;;4992902;28;99255;-77
2022/10/24 12:02:52;;;;;;;9.07;2.15;;;;;;;;;;4996303;28;100699;-77
2022/10/24 12:05:41;;;;;;;7.68;2.55;;;;;;;;;;4992355;28;98590;-77
2022/10/24 12:08:17;;;;;;;10.10;1.85;;;;;;;;;;4993519;28;99504;-76
2022/10/24 12:10:46;;;;;;;6.93;2.25;;;;;;;;;;4992555;28;99397;-77
2022/10/24 12:13:34;;;;;;;10.65;2.40;;;;;;;;;;4993380;28;98529;-77
2022/10/24 12:16:03;;;;;;;9.40;2.33;;;;;;;;;;4991605;28;98873;-77
2022/10/24 12:18:34;;;;;;;13.52;2.38;;;;;;;;;;4992684;28;99752;-77
2022/10/24 12:21:04;;;;;;;10.80;1.83;;;;;;;;;;4992676;28;98564;-76
2022/10/24 12:23:31;;;;;;;6.63;1.80;;;;;;;;;;4993694;28;99887;-76
2022/10/24 12:26:17;;;;;;;7.30;1.90;;;;;;;;;;4994213;28;101078;-77
2022/10/24 12:28:54;;;;;;;5.97;2.35;;;;;;;;;;4992995;28;100873;-76
2022/10/24 12:31:25;;;;;;;5.85;1.83;;;;;;;;;;4993500;28;100632;-76
2022/10/24 12:34:10;;;;;;;9.70;2.40;;;;;;;;;;4992846;28;100764;-76
2022/10/24 12:36:55;;;;;;;6.80;1.77;;;;;;;;;;4994342;28;99048;-76
2022/10/24 12:39:32;;;;;;;6.07;1.70;;;;;;;;;;4990346;28;99419;-76
2022/10/24 12:41:58;;;;;;;5.32;1.60;;;;;;;;;;4992813;28;99211;-76
2022/10/24 12:44:30;;;;;;;7.38;2.03;;;;;;;;;;4993223;28;100139;-76
2022/10/24 12:46:57;;;;;;;;;;;;;;;;;;4992347;28;100174;-76
2022/10/24 12:49:30;;;;;;;4.82;2.00;;;;;;;;;;4996521;28;118266;-76
2022/10/24 12:52:17;;;;;;;8.68;2.00;;;;;;;;;;4991671;28;102011;-76
2022/10/24 12:54:44;;;;;;;6.90;1.67;;;;;;;;;;4991738;28;98418;-76
2022/10/24 12:57:10;;;;;;;5.82;1.92;;;;;;;;;;4992388;28;100363;-77
2022/10/24 12:59:45;;;;;;;4.53;1.58;;;;;;;;;;4991937;28;100286;-77
2022/10/24 13:02:12;;;;;;;7.53;1.85;;;;;;;;;;4991548;28;98941;-76
2022/10/24 13:04:39;;;;;;;5.07;1.60;;;;;;;;;;4992421;28;100063;-76
2022/10/24 13:07:08;;;;;;;8.30;2.30;;;;;;;;;;4988553;28;100406;-76
2022/10/24 13:09:41;;;;;;;6.03;2.35;;;;;;;;;;4992964;28;98254;-76
2022/10/24 13:12:14;;;;;;;7.93;1.95;;;;;;;;;;4995154;28;99279;-76
2022/10/24 13:14:40;;;;;;;;;;;;;;;;;;4992302;28;98555;-76
2022/10/24 13:17:12;;;;;;;6.65;1.80;;;;;;;;;;4993546;28;99281;-76
2022/10/24 13:19:38;;;;;;;5.43;1.70;;;;;;;;;;4992526;28;99200;-76
2022/10/24 13:22:04;;;;;;;5.25;1.98;;;;;;;;;;4990884;28;98553;-76
2022/10/24 13:24:35;;;;;;;9.25;2.17;;;;;;;;;;4991668;28;100064;-76
2022/10/24 13:27:05;;;;;;;8.93;2.38;;;;;;;;;;4978450;28;99188;-76
2022/10/24 13:29:38;;;;;;;5.93;2.03;;;;;;;;;;4981733;28;99627;-76
2022/10/24 13:32:04;;;;;;;5.50;2.40;;;;;;;;;;4985128;28;100234;-76
2022/10/24 13:34:49;;;;;;;4.53;1.95;;;;;;;;;;4989215;28;99709;-78
2022/10/24 13:37:20;;;;;;;9.93;2.10;;;;;;;;;;4987073;28;99165;-82
2022/10/24 13:40:10;;;;;;;9.77;2.00;;;;;;;;;;4988269;28;100092;-77
2022/10/24 13:42:40;;;;;;;7.20;2.08;;;;;;;;;;4965903;28;99354;-77
2022/10/24 13:45:26;;;;;;;6.90;2.00;;;;;;;;;;4974993;28;100023;-77
2022/10/24 13:47:55;;;;;;;10.10;2.03;;;;;;;;;;4991468;28;99452;-76
2022/10/24 13:50:27;;;;;;;6.97;2.00;;;;;;;;;;4995147;28;98739;-77
2022/10/24 13:52:56;;;;;;;8.93;2.38;;;;;;;;;;4990617;28;100106;-77
2022/10/24 13:55:35;;;;;;;8.60;2.35;;;;;;;;;;4990328;28;99503;-77
2022/10/24 13:58:05;;;;;;;8.35;2.50;;;;;;;;;;4985636;28;98919;-76
2022/10/24 14:00:34;;;;;;;5.25;1.90;;;;;;;;;;4990300;28;99193;-76
2022/10/24 14:03:02;;;;;;;8.52;2.60;;;;;;;;;;4992552;28;98509;-76
2022/10/24 14:05:29;;;;;;;9.25;2.63;;;;;;;;;;4990534;28;99965;-76
2022/10/24 14:07:56;;;;;;;5.57;2.53;;;;;;;;;;4987286;28;100972;-75
2022/10/24 14:10:23;;;;;;;6.80;2.30;;;;;;;;;;4990264;28;98618;-76
2022/10/24 14:12:55;;;;;;;3.80;1.70;;;;;;;;;;4976827;28;99803;-76
2022/10/24 14:15:24;;;;;;;11.80;2.00;;;;;;;;;;4987426;28;99383;-76
2022/10/24 14:18:00;;;;;;;7.53;2.17;;;;;;;;;;4993310;28;98765;-76
2022/10/24 14:20:29;;;;;;;3.78;1.98;;;;;;;;;;4990371;28;100249;-77
2022/10/24 14:22:56;;;;;;;5.80;1.95;;;;;;;;;;4989102;28;98547;-77
2022/10/24 14:25:34;;;;;;;8.32;1.90;;;;;;;;;;4991390;28;99929;-77
2022/10/24 14:28:02;;;;;;;8.32;1.83;;;;;;;;;;4987557;28;101113;-77
2022/10/24 14:30:29;;;;;;;7.55;2.38;;;;;;;;;;4986745;28;98536;-76
2022/10/24 14:33:06;;;;;;;6.15;2.00;;;;;;;;;;4985139;28;100160;-77
2022/10/24 14:35:33;;;;;;;6.70;2.03;;;;;;;;;;4986781;28;100254;-77
2022/10/24 14:37:59;;;;;;;9.48;2.20;;;;;;;;;;4981134;28;99426;-76
2022/10/24 14:40:28;;;;;;;10.68;2.85;;;;;;;;;;4992970;28;99962;-76
2022/10/24 14:42:54;;;;;;;9.63;1.90;;;;;;;;;;4990404;28;98571;-76
2022/10/24 14:45:30;;;;;;;11.05;2.90;;;;;;;;;;4985306;28;99565;-76
2022/10/24 14:47:58;;;;;;;7.97;2.60;;;;;;;;;;4987625;28;101043;-77
2022/10/24 14:50:34;;;;;;;14.32;3.15;;;;;;;;;;4991240;28;99854;-76
2022/10/24 14:53:00;;;;;;;10.00;2.85;;;;;;;;;;4990041;28;99340;-76
2022/10/24 14:55:27;;;;;;;11.85;2.75;;;;;;;;;;4993479;28;100638;-76
2022/10/24 14:57:53;;;;;;;9.50;2.30;;;;;;;;;;4989835;28;100663;-76
2022/10/24 15:00:21;;;;;;;7.35;2.45;;;;;;;;;;4990343;28;99778;-77